sensor_id;sensor_type;location;lat;lon;timestamp;P1;durP1;ratioP1;P2;durP2;ratioP2
77202;SDS011;66327;50.096;8.498;2023-11-21T00:02:10;7.05;;;3.13;;
77202;SDS011;66327;50.096;8.498;2023-11-21T00:04:37;6.75;;;2.88;;
77202;SDS011;66327;50.096;8.498;2023-11-21T00:07:04;7.13;;;2.90;;
77202;SDS011;66327;50.096;8.498;2023-11-21T00:09:32;7.63;;;3.08;;
77202;SDS011;66327;50.096;8.498;2023-11-21T00:11:58;8.15;;;2.60;;
77202;SDS011;66327;50.096;8.498;2023-11-21T00:14:28;6.18;;;2.38;;
77202;SDS011;66327;50.096;8.498;2023-11-21T00:16:55;7.18;;;3.00;;
77202;SDS011;66327;50.096;8.498;2023-11-21T00:19:21;5.95;;;2.72;;
77202;SDS011;66327;50.096;8.498;2023-11-21T00:21:47;7.22;;;2.88;;
77202;SDS011;66327;50.096;8.498;2023-11-21T00:24:14;7.93;;;2.85;;
77202;SDS011;66327;50.096;8.498;2023-11-21T00:26:40;5.95;;;3.05;;
77202;SDS011;66327;50.096;8.498;2023-11-21T00:29:07;8.70;;;2.75;;
77202;SDS011;66327;50.096;8.498;2023-11-21T00:31:34;9.57;;;3.10;;
77202;SDS011;66327;50.096;8.498;2023-11-21T00:34:02;6.70;;;2.60;;
77202;SDS011;66327;50.096;8.498;2023-11-21T00:36:29;8.52;;;3.28;;
77202;SDS011;66327;50.096;8.498;2023-11-21T00:38:56;7.38;;;2.88;;
77202;SDS011;66327;50.096;8.498;2023-11-21T00:41:22;9.48;;;3.00;;
77202;SDS011;66327;50.096;8.498;2023-11-21T00:43:48;7.28;;;3.08;;
77202;SDS011;66327;50.096;8.498;2023-11-21T00:46:14;7.68;;;3.03;;
77202;SDS011;66327;50.096;8.498;2023-11-21T00:48:41;8.90;;;3.08;;
77202;SDS011;66327;50.096;8.498;2023-11-21T00:51:07;5.63;;;2.85;;
77202;SDS011;66327;50.096;8.498;2023-11-21T00:53:33;11.00;;;3.80;;
77202;SDS011;66327;50.096;8.498;2023-11-21T00:56:00;6.32;;;3.20;;
77202;SDS011;66327;50.096;8.498;2023-11-21T00:58:26;7.97;;;3.10;;
77202;SDS011;66327;50.096;8.498;2023-11-21T01:00:52;6.18;;;3.08;;
77202;SDS011;66327;50.096;8.498;2023-11-21T01:03:19;7.07;;;3.40;;
77202;SDS011;66327;50.096;8.498;2023-11-21T01:05:46;7.40;;;3.00;;
77202;SDS011;66327;50.096;8.498;2023-11-21T01:08:12;8.25;;;3.58;;
77202;SDS011;66327;50.096;8.498;2023-11-21T01:10:38;12.45;;;3.53;;
77202;SDS011;66327;50.096;8.498;2023-11-21T01:13:05;6.20;;;3.15;;
77202;SDS011;66327;50.096;8.498;2023-11-21T01:15:31;8.35;;;3.35;;
77202;SDS011;66327;50.096;8.498;2023-11-21T01:17:58;8.13;;;3.35;;
77202;SDS011;66327;50.096;8.498;2023-11-21T01:20:24;7.35;;;3.38;;
77202;SDS011;66327;50.096;8.498;2023-11-21T01:22:51;6.75;;;3.13;;
77202;SDS011;66327;50.096;8.498;2023-11-21T01:25:17;7.05;;;3.42;;
77202;SDS011;66327;50.096;8.498;2023-11-21T01:27:43;8.93;;;3.55;;
77202;SDS011;66327;50.096;8.498;2023-11-21T01:30:10;8.30;;;3.78;;
77202;SDS011;66327;50.096;8.498;2023-11-21T01:32:37;6.53;;;3.55;;
77202;SDS011;66327;50.096;8.498;2023-11-21T01:35:03;9.93;;;4.35;;
77202;SDS011;66327;50.096;8.498;2023-11-21T01:37:32;7.80;;;3.88;;
77202;SDS011;66327;50.096;8.498;2023-11-21T01:39:59;9.02;;;3.80;;
77202;SDS011;66327;50.096;8.498;2023-11-21T01:42:27;10.02;;;4.35;;
77202;SDS011;66327;50.096;8.498;2023-11-21T01:44:55;11.18;;;4.03;;
77202;SDS011;66327;50.096;8.498;2023-11-21T01:47:21;8.82;;;4.10;;
77202;SDS011;66327;50.096;8.498;2023-11-21T01:49:48;9.63;;;4.03;;
77202;SDS011;66327;50.096;8.498;2023-11-21T01:52:14;8.82;;;4.38;;
77202;SDS011;66327;50.096;8.498;2023-11-21T01:54:41;8.88;;;3.88;;
77202;SDS011;66327;50.096;8.498;2023-11-21T01:57:07;11.60;;;4.40;;
77202;SDS011;66327;50.096;8.498;2023-11-21T01:59:34;10.98;;;4.47;;
77202;SDS011;66327;50.096;8.498;2023-11-21T02:02:00;7.80;;;4.25;;
77202;SDS011;66327;50.096;8.498;2023-11-21T02:04:26;7.43;;;3.85;;
77202;SDS011;66327;50.096;8.498;2023-11-21T02:06:53;8.25;;;4.15;;
77202;SDS011;66327;50.096;8.498;2023-11-21T02:09:24;9.57;;;4.85;;
77202;SDS011;66327;50.096;8.498;2023-11-21T02:11:50;8.55;;;4.32;;
77202;SDS011;66327;50.096;8.498;2023-11-21T02:14:16;9.27;;;4.65;;
77202;SDS011;66327;50.096;8.498;2023-11-21T02:16:46;12.38;;;4.80;;
77202;SDS011;66327;50.096;8.498;2023-11-21T02:19:18;11.32;;;4.43;;
77202;SDS011;66327;50.096;8.498;2023-11-21T02:21:46;10.95;;;4.53;;
77202;SDS011;66327;50.096;8.498;2023-11-21T02:24:14;7.57;;;4.03;;
77202;SDS011;66327;50.096;8.498;2023-11-21T02:26:40;9.35;;;4.43;;
77202;SDS011;66327;50.096;8.498;2023-11-21T02:29:07;10.10;;;4.07;;
77202;SDS011;66327;50.096;8.498;2023-11-21T02:31:36;11.60;;;4.72;;
77202;SDS011;66327;50.096;8.498;2023-11-21T02:34:11;8.70;;;4.10;;
77202;SDS011;66327;50.096;8.498;2023-11-21T02:39:06;9.32;;;4.53;;
77202;SDS011;66327;50.096;8.498;2023-11-21T02:41:34;9.20;;;4.43;;
77202;SDS011;66327;50.096;8.498;2023-11-21T02:44:00;10.82;;;4.30;;
77202;SDS011;66327;50.096;8.498;2023-11-21T02:46:27;10.38;;;4.80;;
77202;SDS011;66327;50.096;8.498;2023-11-21T02:48:53;11.32;;;4.57;;
77202;SDS011;66327;50.096;8.498;2023-11-21T02:51:20;10.48;;;4.85;;
77202;SDS011;66327;50.096;8.498;2023-11-21T02:53:46;12.15;;;5.45;;
77202;SDS011;66327;50.096;8.498;2023-11-21T02:56:13;12.13;;;5.22;;
77202;SDS011;66327;50.096;8.498;2023-11-21T02:58:42;10.02;;;5.95;;
77202;SDS011;66327;50.096;8.498;2023-11-21T03:01:10;11.63;;;5.15;;
77202;SDS011;66327;50.096;8.498;2023-11-21T03:03:37;12.63;;;5.57;;
77202;SDS011;66327;50.096;8.498;2023-11-21T03:06:06;12.80;;;5.25;;
77202;SDS011;66327;50.096;8.498;2023-11-21T03:08:32;11.52;;;5.00;;
77202;SDS011;66327;50.096;8.498;2023-11-21T03:10:59;12.18;;;4.95;;
77202;SDS011;66327;50.096;8.498;2023-11-21T03:13:25;8.98;;;4.80;;
77202;SDS011;66327;50.096;8.498;2023-11-21T03:15:51;12.05;;;5.53;;
77202;SDS011;66327;50.096;8.498;2023-11-21T03:18:18;11.88;;;5.78;;
77202;SDS011;66327;50.096;8.498;2023-11-21T03:20:44;11.38;;;4.90;;
77202;SDS011;66327;50.096;8.498;2023-11-21T03:23:13;12.65;;;5.10;;
77202;SDS011;66327;50.096;8.498;2023-11-21T03:25:40;12.32;;;5.63;;
77202;SDS011;66327;50.096;8.498;2023-11-21T03:28:06;11.20;;;5.32;;
77202;SDS011;66327;50.096;8.498;2023-11-21T03:33:01;13.82;;;5.70;;
77202;SDS011;66327;50.096;8.498;2023-11-21T03:35:27;15.50;;;5.88;;
77202;SDS011;66327;50.096;8.498;2023-11-21T03:37:54;11.38;;;5.35;;
77202;SDS011;66327;50.096;8.498;2023-11-21T03:40:20;14.05;;;5.47;;
77202;SDS011;66327;50.096;8.498;2023-11-21T03:42:47;15.18;;;5.93;;
77202;SDS011;66327;50.096;8.498;2023-11-21T03:45:13;15.10;;;5.93;;
77202;SDS011;66327;50.096;8.498;2023-11-21T03:47:41;16.40;;;6.03;;
77202;SDS011;66327;50.096;8.498;2023-11-21T03:50:08;18.75;;;7.13;;
77202;SDS011;66327;50.096;8.498;2023-11-21T03:52:35;21.45;;;7.03;;
77202;SDS011;66327;50.096;8.498;2023-11-21T03:55:01;17.92;;;6.60;;
77202;SDS011;66327;50.096;8.498;2023-11-21T03:57:28;15.82;;;6.05;;
77202;SDS011;66327;50.096;8.498;2023-11-21T03:59:54;14.50;;;6.25;;
77202;SDS011;66327;50.096;8.498;2023-11-21T04:02:21;12.85;;;5.97;;
77202;SDS011;66327;50.096;8.498;2023-11-21T04:04:47;16.17;;;6.88;;
77202;SDS011;66327;50.096;8.498;2023-11-21T04:07:14;13.43;;;5.90;;
77202;SDS011;66327;50.096;8.498;2023-11-21T04:09:40;13.63;;;5.95;;
77202;SDS011;66327;50.096;8.498;2023-11-21T04:12:07;10.73;;;5.22;;
77202;SDS011;66327;50.096;8.498;2023-11-21T04:17:01;10.82;;;5.25;;
77202;SDS011;66327;50.096;8.498;2023-11-21T04:19:27;10.45;;;5.07;;
77202;SDS011;66327;50.096;8.498;2023-11-21T04:21:54;11.30;;;6.20;;
77202;SDS011;66327;50.096;8.498;2023-11-21T04:24:20;11.75;;;5.88;;
77202;SDS011;66327;50.096;8.498;2023-11-21T04:26:46;13.07;;;6.05;;
77202;SDS011;66327;50.096;8.498;2023-11-21T04:29:13;11.23;;;5.32;;
77202;SDS011;66327;50.096;8.498;2023-11-21T04:31:39;13.13;;;6.07;;
77202;SDS011;66327;50.096;8.498;2023-11-21T04:34:05;12.63;;;5.95;;
77202;SDS011;66327;50.096;8.498;2023-11-21T04:36:32;11.48;;;5.55;;
77202;SDS011;66327;50.096;8.498;2023-11-21T04:38:58;13.57;;;5.88;;
77202;SDS011;66327;50.096;8.498;2023-11-21T04:41:24;18.77;;;6.22;;
77202;SDS011;66327;50.096;8.498;2023-11-21T04:43:51;12.07;;;5.60;;
77202;SDS011;66327;50.096;8.498;2023-11-21T04:46:17;11.40;;;5.68;;
77202;SDS011;66327;50.096;8.498;2023-11-21T04:48:44;11.60;;;5.25;;
77202;SDS011;66327;50.096;8.498;2023-11-21T04:51:10;12.93;;;5.70;;
77202;SDS011;66327;50.096;8.498;2023-11-21T04:53:38;10.80;;;5.13;;
77202;SDS011;66327;50.096;8.498;2023-11-21T04:56:05;12.95;;;5.20;;
77202;SDS011;66327;50.096;8.498;2023-11-21T04:58:32;12.30;;;5.70;;
77202;SDS011;66327;50.096;8.498;2023-11-21T05:00:59;11.25;;;5.22;;
77202;SDS011;66327;50.096;8.498;2023-11-21T05:03:25;10.68;;;5.03;;
77202;SDS011;66327;50.096;8.498;2023-11-21T05:05:52;12.90;;;5.28;;
77202;SDS011;66327;50.096;8.498;2023-11-21T05:08:18;12.35;;;5.78;;
77202;SDS011;66327;50.096;8.498;2023-11-21T05:10:46;13.57;;;5.50;;
77202;SDS011;66327;50.096;8.498;2023-11-21T05:13:12;10.13;;;4.82;;
77202;SDS011;66327;50.096;8.498;2023-11-21T05:15:38;9.50;;;4.72;;
77202;SDS011;66327;50.096;8.498;2023-11-21T05:18:05;9.07;;;4.30;;
77202;SDS011;66327;50.096;8.498;2023-11-21T05:20:32;10.73;;;4.15;;
77202;SDS011;66327;50.096;8.498;2023-11-21T05:22:59;13.90;;;5.18;;
77202;SDS011;66327;50.096;8.498;2023-11-21T05:25:25;9.40;;;4.60;;
77202;SDS011;66327;50.096;8.498;2023-11-21T05:27:52;13.15;;;5.78;;
77202;SDS011;66327;50.096;8.498;2023-11-21T05:30:19;8.93;;;4.30;;
77202;SDS011;66327;50.096;8.498;2023-11-21T05:32:45;9.95;;;4.75;;
77202;SDS011;66327;50.096;8.498;2023-11-21T05:35:13;9.05;;;5.00;;
77202;SDS011;66327;50.096;8.498;2023-11-21T05:37:43;10.23;;;4.38;;
77202;SDS011;66327;50.096;8.498;2023-11-21T05:40:09;9.85;;;4.93;;
77202;SDS011;66327;50.096;8.498;2023-11-21T05:42:36;10.63;;;4.90;;
77202;SDS011;66327;50.096;8.498;2023-11-21T05:45:04;8.98;;;4.85;;
77202;SDS011;66327;50.096;8.498;2023-11-21T05:47:39;10.43;;;5.20;;
77202;SDS011;66327;50.096;8.498;2023-11-21T05:50:07;11.85;;;4.95;;
77202;SDS011;66327;50.096;8.498;2023-11-21T05:52:36;10.70;;;4.80;;
77202;SDS011;66327;50.096;8.498;2023-11-21T05:55:03;9.77;;;4.65;;
77202;SDS011;66327;50.096;8.498;2023-11-21T05:57:31;12.43;;;5.38;;
77202;SDS011;66327;50.096;8.498;2023-11-21T05:59:57;9.88;;;4.68;;
77202;SDS011;66327;50.096;8.498;2023-11-21T06:02:23;10.43;;;5.22;;
77202;SDS011;66327;50.096;8.498;2023-11-21T06:04:50;9.48;;;4.65;;
77202;SDS011;66327;50.096;8.498;2023-11-21T06:07:16;9.93;;;5.00;;
77202;SDS011;66327;50.096;8.498;2023-11-21T06:09:43;13.25;;;5.68;;
77202;SDS011;66327;50.096;8.498;2023-11-21T06:12:11;11.07;;;5.03;;
77202;SDS011;66327;50.096;8.498;2023-11-21T06:14:37;10.18;;;5.10;;
77202;SDS011;66327;50.096;8.498;2023-11-21T06:17:03;11.05;;;5.18;;
77202;SDS011;66327;50.096;8.498;2023-11-21T06:19:30;11.80;;;5.25;;
77202;SDS011;66327;50.096;8.498;2023-11-21T06:21:56;12.65;;;5.30;;
77202;SDS011;66327;50.096;8.498;2023-11-21T06:24:22;11.60;;;5.30;;
77202;SDS011;66327;50.096;8.498;2023-11-21T06:26:49;13.65;;;5.72;;
77202;SDS011;66327;50.096;8.498;2023-11-21T06:29:15;14.25;;;5.63;;
77202;SDS011;66327;50.096;8.498;2023-11-21T06:31:42;11.75;;;5.32;;
77202;SDS011;66327;50.096;8.498;2023-11-21T06:34:10;11.80;;;5.90;;
77202;SDS011;66327;50.096;8.498;2023-11-21T06:36:36;13.15;;;5.47;;
77202;SDS011;66327;50.096;8.498;2023-11-21T06:39:02;11.85;;;4.65;;
77202;SDS011;66327;50.096;8.498;2023-11-21T06:41:33;11.52;;;5.15;;
77202;SDS011;66327;50.096;8.498;2023-11-21T06:43:59;12.77;;;5.50;;
77202;SDS011;66327;50.096;8.498;2023-11-21T06:46:26;10.30;;;4.93;;
77202;SDS011;66327;50.096;8.498;2023-11-21T06:48:52;12.18;;;5.30;;
77202;SDS011;66327;50.096;8.498;2023-11-21T06:51:18;8.82;;;4.78;;
77202;SDS011;66327;50.096;8.498;2023-11-21T06:53:45;9.82;;;4.50;;
77202;SDS011;66327;50.096;8.498;2023-11-21T06:56:18;10.77;;;5.40;;
77202;SDS011;66327;50.096;8.498;2023-11-21T06:58:45;11.27;;;4.80;;
77202;SDS011;66327;50.096;8.498;2023-11-21T07:01:12;11.00;;;5.00;;
77202;SDS011;66327;50.096;8.498;2023-11-21T07:03:39;9.57;;;4.18;;
77202;SDS011;66327;50.096;8.498;2023-11-21T07:06:06;9.27;;;4.47;;
77202;SDS011;66327;50.096;8.498;2023-11-21T07:08:32;8.32;;;3.88;;
77202;SDS011;66327;50.096;8.498;2023-11-21T07:10:58;10.00;;;4.18;;
77202;SDS011;66327;50.096;8.498;2023-11-21T07:13:25;8.85;;;4.00;;
77202;SDS011;66327;50.096;8.498;2023-11-21T07:15:52;7.68;;;3.65;;
77202;SDS011;66327;50.096;8.498;2023-11-21T07:18:18;7.88;;;3.40;;
77202;SDS011;66327;50.096;8.498;2023-11-21T07:20:44;8.02;;;3.72;;
77202;SDS011;66327;50.096;8.498;2023-11-21T07:23:11;8.00;;;3.65;;
77202;SDS011;66327;50.096;8.498;2023-11-21T07:25:37;5.85;;;3.10;;
77202;SDS011;66327;50.096;8.498;2023-11-21T07:28:03;8.23;;;3.67;;
77202;SDS011;66327;50.096;8.498;2023-11-21T07:35:24;6.32;;;3.10;;
77202;SDS011;66327;50.096;8.498;2023-11-21T07:37:51;7.32;;;3.25;;
77202;SDS011;66327;50.096;8.498;2023-11-21T07:40:17;8.15;;;2.75;;
77202;SDS011;66327;50.096;8.498;2023-11-21T07:42:43;7.55;;;2.72;;
77202;SDS011;66327;50.096;8.498;2023-11-21T07:45:10;5.03;;;2.75;;
77202;SDS011;66327;50.096;8.498;2023-11-21T07:47:36;7.78;;;3.30;;
77202;SDS011;66327;50.096;8.498;2023-11-21T07:50:03;5.00;;;2.75;;
77202;SDS011;66327;50.096;8.498;2023-11-21T07:52:29;5.93;;;2.85;;
77202;SDS011;66327;50.096;8.498;2023-11-21T07:54:56;5.35;;;2.50;;
77202;SDS011;66327;50.096;8.498;2023-11-21T07:57:22;6.38;;;2.85;;
77202;SDS011;66327;50.096;8.498;2023-11-21T07:59:48;7.28;;;2.92;;
77202;SDS011;66327;50.096;8.498;2023-11-21T08:02:15;5.10;;;2.53;;
77202;SDS011;66327;50.096;8.498;2023-11-21T08:04:43;5.80;;;2.70;;
77202;SDS011;66327;50.096;8.498;2023-11-21T08:07:10;5.38;;;2.72;;
77202;SDS011;66327;50.096;8.498;2023-11-21T08:09:37;6.78;;;2.75;;
77202;SDS011;66327;50.096;8.498;2023-11-21T08:12:04;5.10;;;2.67;;
77202;SDS011;66327;50.096;8.498;2023-11-21T08:14:30;5.90;;;2.72;;
77202;SDS011;66327;50.096;8.498;2023-11-21T08:16:57;6.43;;;2.58;;
77202;SDS011;66327;50.096;8.498;2023-11-21T08:19:24;5.03;;;2.70;;
77202;SDS011;66327;50.096;8.498;2023-11-21T08:21:53;7.50;;;2.80;;
77202;SDS011;66327;50.096;8.498;2023-11-21T08:24:21;5.72;;;2.88;;
77202;SDS011;66327;50.096;8.498;2023-11-21T08:26:47;8.30;;;3.03;;
77202;SDS011;66327;50.096;8.498;2023-11-21T08:29:14;6.28;;;3.08;;
77202;SDS011;66327;50.096;8.498;2023-11-21T08:31:40;6.55;;;3.38;;
77202;SDS011;66327;50.096;8.498;2023-11-21T08:34:07;5.47;;;2.80;;
77202;SDS011;66327;50.096;8.498;2023-11-21T08:36:34;5.78;;;2.65;;
77202;SDS011;66327;50.096;8.498;2023-11-21T08:39:01;6.53;;;2.60;;
77202;SDS011;66327;50.096;8.498;2023-11-21T08:41:27;6.78;;;3.30;;
77202;SDS011;66327;50.096;8.498;2023-11-21T08:43:54;7.03;;;2.83;;
77202;SDS011;66327;50.096;8.498;2023-11-21T08:46:21;5.03;;;2.65;;
77202;SDS011;66327;50.096;8.498;2023-11-21T08:48:47;8.30;;;2.75;;
77202;SDS011;66327;50.096;8.498;2023-11-21T08:51:14;4.93;;;2.60;;
77202;SDS011;66327;50.096;8.498;2023-11-21T08:53:40;4.95;;;2.47;;
77202;SDS011;66327;50.096;8.498;2023-11-21T08:56:07;5.20;;;2.42;;
77202;SDS011;66327;50.096;8.498;2023-11-21T08:58:35;4.65;;;2.50;;
77202;SDS011;66327;50.096;8.498;2023-11-21T09:01:03;5.40;;;2.30;;
77202;SDS011;66327;50.096;8.498;2023-11-21T09:03:29;6.63;;;2.63;;
77202;SDS011;66327;50.096;8.498;2023-11-21T09:05:56;6.85;;;2.47;;
77202;SDS011;66327;50.096;8.498;2023-11-21T09:08:22;6.78;;;3.13;;
77202;SDS011;66327;50.096;8.498;2023-11-21T09:10:48;9.80;;;2.92;;
77202;SDS011;66327;50.096;8.498;2023-11-21T09:13:15;5.78;;;2.42;;
77202;SDS011;66327;50.096;8.498;2023-11-21T09:15:43;6.20;;;2.70;;
77202;SDS011;66327;50.096;8.498;2023-11-21T09:18:15;7.13;;;2.67;;
77202;SDS011;66327;50.096;8.498;2023-11-21T09:20:42;6.00;;;2.97;;
77202;SDS011;66327;50.096;8.498;2023-11-21T09:23:10;8.68;;;3.03;;
77202;SDS011;66327;50.096;8.498;2023-11-21T09:25:36;7.65;;;2.72;;
77202;SDS011;66327;50.096;8.498;2023-11-21T09:28:03;7.18;;;2.65;;
77202;SDS011;66327;50.096;8.498;2023-11-21T09:30:34;5.20;;;2.33;;
77202;SDS011;66327;50.096;8.498;2023-11-21T09:33:01;5.72;;;2.65;;
77202;SDS011;66327;50.096;8.498;2023-11-21T09:35:28;5.95;;;2.60;;
77202;SDS011;66327;50.096;8.498;2023-11-21T09:37:54;7.47;;;2.80;;
77202;SDS011;66327;50.096;8.498;2023-11-21T09:40:22;7.40;;;2.60;;
77202;SDS011;66327;50.096;8.498;2023-11-21T09:42:52;5.00;;;2.53;;
77202;SDS011;66327;50.096;8.498;2023-11-21T09:45:29;5.93;;;2.67;;
77202;SDS011;66327;50.096;8.498;2023-11-21T09:48:00;4.10;;;2.20;;
77202;SDS011;66327;50.096;8.498;2023-11-21T09:50:26;6.60;;;2.78;;
77202;SDS011;66327;50.096;8.498;2023-11-21T09:55:44;5.25;;;2.55;;
77202;SDS011;66327;50.096;8.498;2023-11-21T09:58:11;4.45;;;2.65;;
77202;SDS011;66327;50.096;8.498;2023-11-21T10:00:39;6.93;;;3.28;;
77202;SDS011;66327;50.096;8.498;2023-11-21T10:03:06;5.88;;;3.17;;
77202;SDS011;66327;50.096;8.498;2023-11-21T10:05:33;8.93;;;3.22;;
77202;SDS011;66327;50.096;8.498;2023-11-21T10:10:27;5.00;;;2.97;;
77202;SDS011;66327;50.096;8.498;2023-11-21T10:12:55;8.13;;;2.88;;
77202;SDS011;66327;50.096;8.498;2023-11-21T10:15:23;7.60;;;3.40;;
77202;SDS011;66327;50.096;8.498;2023-11-21T10:17:51;8.23;;;3.20;;
77202;SDS011;66327;50.096;8.498;2023-11-21T10:20:19;8.15;;;3.33;;
77202;SDS011;66327;50.096;8.498;2023-11-21T10:22:46;8.63;;;2.97;;
77202;SDS011;66327;50.096;8.498;2023-11-21T10:25:12;7.30;;;3.30;;
77202;SDS011;66327;50.096;8.498;2023-11-21T10:27:42;6.53;;;3.40;;
77202;SDS011;66327;50.096;8.498;2023-11-21T10:30:09;6.15;;;3.25;;
77202;SDS011;66327;50.096;8.498;2023-11-21T10:32:39;5.00;;;2.33;;
77202;SDS011;66327;50.096;8.498;2023-11-21T10:35:07;6.95;;;3.08;;
77202;SDS011;66327;50.096;8.498;2023-11-21T10:37:37;7.80;;;3.28;;
77202;SDS011;66327;50.096;8.498;2023-11-21T10:40:07;7.00;;;2.80;;
77202;SDS011;66327;50.096;8.498;2023-11-21T10:42:34;4.57;;;2.08;;
77202;SDS011;66327;50.096;8.498;2023-11-21T10:45:00;4.70;;;2.47;;
77202;SDS011;66327;50.096;8.498;2023-11-21T10:47:27;6.72;;;2.70;;
77202;SDS011;66327;50.096;8.498;2023-11-21T10:49:53;5.60;;;2.83;;
77202;SDS011;66327;50.096;8.498;2023-11-21T10:52:19;4.95;;;2.47;;
77202;SDS011;66327;50.096;8.498;2023-11-21T10:54:46;8.43;;;2.78;;
77202;SDS011;66327;50.096;8.498;2023-11-21T10:57:15;5.28;;;2.55;;
77202;SDS011;66327;50.096;8.498;2023-11-21T10:59:46;7.13;;;2.88;;
77202;SDS011;66327;50.096;8.498;2023-11-21T11:02:19;6.38;;;2.80;;
77202;SDS011;66327;50.096;8.498;2023-11-21T11:07:15;7.72;;;2.60;;
77202;SDS011;66327;50.096;8.498;2023-11-21T11:09:45;3.88;;;2.00;;
77202;SDS011;66327;50.096;8.498;2023-11-21T11:12:13;3.90;;;2.10;;
77202;SDS011;66327;50.096;8.498;2023-11-21T11:14:40;4.93;;;2.13;;
77202;SDS011;66327;50.096;8.498;2023-11-21T11:17:07;5.93;;;2.80;;
77202;SDS011;66327;50.096;8.498;2023-11-21T11:19:35;5.30;;;2.53;;
77202;SDS011;66327;50.096;8.498;2023-11-21T11:25:07;6.68;;;2.47;;
77202;SDS011;66327;50.096;8.498;2023-11-21T11:27:44;5.53;;;2.30;;
77202;SDS011;66327;50.096;8.498;2023-11-21T11:30:28;5.68;;;2.42;;
77202;SDS011;66327;50.096;8.498;2023-11-21T11:33:08;4.55;;;2.40;;
77202;SDS011;66327;50.096;8.498;2023-11-21T11:35:46;6.32;;;2.80;;
77202;SDS011;66327;50.096;8.498;2023-11-21T11:38:15;4.75;;;2.50;;
77202;SDS011;66327;50.096;8.498;2023-11-21T11:40:44;6.07;;;2.17;;
77202;SDS011;66327;50.096;8.498;2023-11-21T11:43:11;7.13;;;2.78;;
77202;SDS011;66327;50.096;8.498;2023-11-21T11:45:38;5.53;;;2.42;;
77202;SDS011;66327;50.096;8.498;2023-11-21T11:48:13;4.75;;;2.40;;
77202;SDS011;66327;50.096;8.498;2023-11-21T11:53:25;6.50;;;2.35;;
77202;SDS011;66327;50.096;8.498;2023-11-21T11:56:26;5.88;;;2.50;;
77202;SDS011;66327;50.096;8.498;2023-11-21T11:58:44;6.20;;;2.33;;
77202;SDS011;66327;50.096;8.498;2023-11-21T12:01:12;5.05;;;2.40;;
77202;SDS011;66327;50.096;8.498;2023-11-21T12:03:39;6.85;;;2.38;;
77202;SDS011;66327;50.096;8.498;2023-11-21T12:06:06;7.40;;;2.38;;
77202;SDS011;66327;50.096;8.498;2023-11-21T12:08:35;6.15;;;2.17;;
77202;SDS011;66327;50.096;8.498;2023-11-21T12:11:02;6.05;;;2.30;;
77202;SDS011;66327;50.096;8.498;2023-11-21T12:13:28;6.90;;;2.60;;
77202;SDS011;66327;50.096;8.498;2023-11-21T12:15:54;4.28;;;2.10;;
77202;SDS011;66327;50.096;8.498;2023-11-21T12:18:21;5.07;;;2.60;;
77202;SDS011;66327;50.096;8.498;2023-11-21T12:20:47;6.88;;;2.70;;
77202;SDS011;66327;50.096;8.498;2023-11-21T12:23:16;4.15;;;2.22;;
77202;SDS011;66327;50.096;8.498;2023-11-21T12:25:43;5.25;;;2.20;;
77202;SDS011;66327;50.096;8.498;2023-11-21T12:28:09;7.65;;;2.35;;
77202;SDS011;66327;50.096;8.498;2023-11-21T12:30:36;6.25;;;2.50;;
77202;SDS011;66327;50.096;8.498;2023-11-21T12:33:04;5.03;;;2.17;;
77202;SDS011;66327;50.096;8.498;2023-11-21T12:35:33;4.97;;;2.10;;
77202;SDS011;66327;50.096;8.498;2023-11-21T12:38:00;3.72;;;2.22;;
77202;SDS011;66327;50.096;8.498;2023-11-21T12:40:28;4.45;;;2.13;;
77202;SDS011;66327;50.096;8.498;2023-11-21T12:42:58;4.50;;;2.28;;
77202;SDS011;66327;50.096;8.498;2023-11-21T12:45:26;5.68;;;2.75;;
77202;SDS011;66327;50.096;8.498;2023-11-21T12:47:54;5.47;;;2.38;;
77202;SDS011;66327;50.096;8.498;2023-11-21T12:50:24;4.15;;;2.10;;
77202;SDS011;66327;50.096;8.498;2023-11-21T12:52:58;4.55;;;2.00;;
77202;SDS011;66327;50.096;8.498;2023-11-21T12:55:25;4.45;;;2.40;;
77202;SDS011;66327;50.096;8.498;2023-11-21T12:57:52;5.32;;;1.75;;
77202;SDS011;66327;50.096;8.498;2023-11-21T13:00:27;5.22;;;2.10;;
77202;SDS011;66327;50.096;8.498;2023-11-21T13:02:54;7.25;;;2.80;;
77202;SDS011;66327;50.096;8.498;2023-11-21T13:05:33;5.03;;;2.40;;
77202;SDS011;66327;50.096;8.498;2023-11-21T13:08:03;7.15;;;2.28;;
77202;SDS011;66327;50.096;8.498;2023-11-21T13:10:34;7.25;;;2.40;;
77202;SDS011;66327;50.096;8.498;2023-11-21T13:13:03;6.28;;;2.28;;
77202;SDS011;66327;50.096;8.498;2023-11-21T13:15:31;7.28;;;2.63;;
77202;SDS011;66327;50.096;8.498;2023-11-21T13:17:59;6.10;;;2.65;;
77202;SDS011;66327;50.096;8.498;2023-11-21T13:20:26;8.70;;;2.92;;
77202;SDS011;66327;50.096;8.498;2023-11-21T13:22:55;6.10;;;2.40;;
77202;SDS011;66327;50.096;8.498;2023-11-21T13:25:28;5.03;;;2.30;;
77202;SDS011;66327;50.096;8.498;2023-11-21T13:27:57;4.70;;;2.30;;
77202;SDS011;66327;50.096;8.498;2023-11-21T13:30:38;5.90;;;2.42;;
77202;SDS011;66327;50.096;8.498;2023-11-21T13:33:06;4.15;;;2.40;;
77202;SDS011;66327;50.096;8.498;2023-11-21T13:35:35;4.32;;;2.22;;
77202;SDS011;66327;50.096;8.498;2023-11-21T13:38:10;3.67;;;1.95;;
77202;SDS011;66327;50.096;8.498;2023-11-21T13:40:37;6.47;;;2.17;;
77202;SDS011;66327;50.096;8.498;2023-11-21T13:43:10;4.53;;;2.00;;
77202;SDS011;66327;50.096;8.498;2023-11-21T13:45:37;4.07;;;2.08;;
77202;SDS011;66327;50.096;8.498;2023-11-21T13:48:07;4.13;;;1.95;;
77202;SDS011;66327;50.096;8.498;2023-11-21T13:50:36;5.63;;;2.05;;
77202;SDS011;66327;50.096;8.498;2023-11-21T13:53:03;5.20;;;2.17;;
77202;SDS011;66327;50.096;8.498;2023-11-21T13:55:44;6.70;;;2.20;;
77202;SDS011;66327;50.096;8.498;2023-11-21T14:00:43;4.38;;;2.08;;
77202;SDS011;66327;50.096;8.498;2023-11-21T14:03:21;4.72;;;1.80;;
77202;SDS011;66327;50.096;8.498;2023-11-21T14:08:20;6.65;;;1.98;;
77202;SDS011;66327;50.096;8.498;2023-11-21T14:10:47;4.22;;;2.28;;
77202;SDS011;66327;50.096;8.498;2023-11-21T14:13:19;6.00;;;2.58;;
77202;SDS011;66327;50.096;8.498;2023-11-21T14:15:49;3.90;;;1.88;;
77202;SDS011;66327;50.096;8.498;2023-11-21T14:18:18;5.30;;;2.00;;
77202;SDS011;66327;50.096;8.498;2023-11-21T14:20:53;5.70;;;2.50;;
77202;SDS011;66327;50.096;8.498;2023-11-21T14:23:19;5.28;;;2.50;;
77202;SDS011;66327;50.096;8.498;2023-11-21T14:25:47;5.10;;;2.63;;
77202;SDS011;66327;50.096;8.498;2023-11-21T14:28:14;6.88;;;3.15;;
77202;SDS011;66327;50.096;8.498;2023-11-21T14:30:41;7.78;;;3.45;;
77202;SDS011;66327;50.096;8.498;2023-11-21T14:33:08;9.65;;;4.18;;
77202;SDS011;66327;50.096;8.498;2023-11-21T14:35:37;9.20;;;4.35;;
77202;SDS011;66327;50.096;8.498;2023-11-21T14:38:03;10.10;;;4.78;;
77202;SDS011;66327;50.096;8.498;2023-11-21T14:40:31;9.25;;;4.93;;
77202;SDS011;66327;50.096;8.498;2023-11-21T14:43:00;9.88;;;4.97;;
77202;SDS011;66327;50.096;8.498;2023-11-21T14:45:26;11.63;;;4.53;;
77202;SDS011;66327;50.096;8.498;2023-11-21T14:47:53;10.65;;;4.72;;
77202;SDS011;66327;50.096;8.498;2023-11-21T14:50:32;11.88;;;5.38;;
77202;SDS011;66327;50.096;8.498;2023-11-21T14:53:15;7.57;;;3.58;;
77202;SDS011;66327;50.096;8.498;2023-11-21T14:55:41;9.68;;;4.78;;
77202;SDS011;66327;50.096;8.498;2023-11-21T14:58:17;12.60;;;5.63;;
77202;SDS011;66327;50.096;8.498;2023-11-21T15:00:53;11.48;;;5.25;;
77202;SDS011;66327;50.096;8.498;2023-11-21T15:03:24;15.02;;;5.35;;
77202;SDS011;66327;50.096;8.498;2023-11-21T15:06:04;11.38;;;5.40;;
77202;SDS011;66327;50.096;8.498;2023-11-21T15:08:57;9.57;;;4.93;;
77202;SDS011;66327;50.096;8.498;2023-11-21T15:11:46;11.02;;;5.10;;
77202;SDS011;66327;50.096;8.498;2023-11-21T15:14:13;12.68;;;4.95;;
77202;SDS011;66327;50.096;8.498;2023-11-21T15:16:46;11.05;;;4.70;;
77202;SDS011;66327;50.096;8.498;2023-11-21T15:19:17;9.13;;;4.43;;